Time;durP1;ratioP1;P1;durP2;ratioP2;P2;SDS_P1;SDS_P2;PMS_P1;PMS_P2;Temp;Humidity;BMP_temperature;BMP_pressure;BME280_temperature;BME280_humidity;BME280_pressure;Samples;Min_cycle;Max_cycle;Signal;HPM_P1;HPM_P2
2024/03/04 00:01:08;;;;;;;12.93;8.52;;;4.00;99.90;;;;;;5009094;28;20203;-59
2024/03/04 00:03:34;;;;;;;14.35;9.05;;;3.90;99.90;;;;;;5008671;28;20214;-61
2024/03/04 00:06:04;;;;;;;14.13;9.90;;;3.90;99.90;;;;;;5008848;28;20237;-59
2024/03/04 00:08:31;;;;;;;11.32;9.65;;;3.90;99.90;;;;;;5009389;28;20242;-60
2024/03/04 00:10:58;;;;;;;14.38;8.65;;;3.90;99.90;;;;;;5008949;28;20212;-60
2024/03/04 00:13:25;;;;;;;13.85;9.65;;;3.90;99.90;;;;;;5008817;28;20295;-62
2024/03/04 00:15:53;;;;;;;10.90;9.75;;;3.90;99.90;;;;;;5009226;28;20203;-62
2024/03/04 00:18:20;;;;;;;15.00;10.30;;;3.90;99.90;;;;;;5004894;28;20212;-60
2024/03/04 00:20:47;;;;;;;10.25;8.85;;;3.90;99.90;;;;;;4993647;28;20244;-59
2024/03/04 00:23:16;;;;;;;13.70;9.63;;;3.80;99.90;;;;;;5005159;28;20227;-58
2024/03/04 00:25:44;;;;;;;9.90;7.97;;;3.80;99.90;;;;;;4995797;28;20239;-61
2024/03/04 00:28:11;;;;;;;10.05;8.15;;;3.80;99.90;;;;;;5008842;28;20207;-60
2024/03/04 00:30:37;;;;;;;13.07;8.93;;;3.80;99.90;;;;;;5008459;28;20227;-61
2024/03/04 00:33:05;;;;;;;15.75;9.38;;;3.80;99.90;;;;;;4990944;28;20218;-56
2024/03/04 00:35:31;;;;;;;9.77;8.85;;;3.80;99.90;;;;;;5007062;28;20207;-61
2024/03/04 00:37:58;;;;;;;13.82;9.32;;;3.70;99.90;;;;;;4993518;28;20303;-60
2024/03/04 00:40:26;;;;;;;10.20;8.75;;;3.70;99.90;;;;;;5036428;22;20235;-63
2024/03/04 00:42:53;;;;;;;9.45;8.55;;;3.70;99.90;;;;;;5027899;28;20253;-63
2024/03/04 00:45:20;;;;;;;15.15;10.90;;;3.70;99.90;;;;;;5032440;28;20698;-63
2024/03/04 00:47:47;;;;;;;11.25;9.15;;;3.70;99.90;;;;;;5043864;28;20676;-63
2024/03/04 00:50:14;;;;;;;13.40;9.57;;;3.70;99.90;;;;;;5035489;28;20599;-63
2024/03/04 00:52:41;;;;;;;10.52;9.20;;;3.70;99.90;;;;;;5042248;28;20297;-63
2024/03/04 00:55:08;;;;;;;11.80;9.65;;;3.70;99.90;;;;;;5043763;28;20213;-63
2024/03/04 00:57:38;;;;;;;12.10;8.50;;;3.70;99.90;;;;;;5041741;28;20661;-63
2024/03/04 01:00:08;;;;;;;12.32;9.27;;;3.60;99.90;;;;;;5039552;28;20608;-63
2024/03/04 01:02:35;;;;;;;11.07;9.15;;;3.60;99.90;;;;;;5039318;28;20209;-63
2024/03/04 01:05:02;;;;;;;11.43;8.77;;;3.60;99.90;;;;;;5040121;28;20215;-63
2024/03/04 01:07:29;;;;;;;10.32;9.20;;;3.60;99.90;;;;;;5046246;28;20221;-63
2024/03/04 01:09:56;;;;;;;16.15;11.07;;;3.60;99.90;;;;;;5038570;28;20230;-63
2024/03/04 01:12:23;;;;;;;13.02;9.10;;;3.50;99.90;;;;;;5045808;28;20692;-63
2024/03/04 01:14:51;;;;;;;10.75;9.30;;;3.50;99.90;;;;;;5037292;28;20294;-63
2024/03/04 01:17:18;;;;;;;11.68;9.25;;;3.50;99.90;;;;;;5033728;28;20843;-63
2024/03/04 01:19:46;;;;;;;10.88;9.70;;;3.50;99.90;;;;;;5043217;28;20783;-63
2024/03/04 01:22:16;;;;;;;12.93;8.50;;;3.50;99.90;;;;;;5042535;28;20207;-63
2024/03/04 01:24:43;;;;;;;10.45;9.35;;;3.40;99.90;;;;;;5041341;28;20268;-63
2024/03/04 01:27:10;;;;;;;11.02;9.00;;;3.40;99.90;;;;;;5031841;28;20225;-63
2024/03/04 01:29:37;;;;;;;14.77;9.93;;;3.40;99.90;;;;;;5039407;28;20248;-63
2024/03/04 01:32:07;;;;;;;11.48;10.15;;;3.40;99.90;;;;;;5040747;28;20221;-63
2024/03/04 01:34:35;;;;;;;11.18;9.80;;;3.30;99.90;;;;;;5043600;28;20210;-63
2024/03/04 01:37:01;;;;;;;15.60;9.40;;;3.30;99.90;;;;;;5038496;28;20210;-63
2024/03/04 01:39:28;;;;;;;19.65;8.43;;;3.30;99.90;;;;;;5042125;28;20206;-63
2024/03/04 01:41:55;;;;;;;13.25;9.15;;;3.30;99.90;;;;;;5043960;28;20207;-63
2024/03/04 01:44:26;;;;;;;9.43;8.10;;;3.30;99.90;;;;;;5041280;28;20588;-63
2024/03/04 01:46:53;;;;;;;12.40;9.05;;;3.20;99.90;;;;;;5032559;28;20238;-63
2024/03/04 01:49:22;;;;;;;10.30;9.07;;;3.20;99.90;;;;;;5025649;28;20203;-63
2024/03/04 01:51:49;;;;;;;9.57;8.23;;;3.20;99.90;;;;;;5026361;28;20885;-63
2024/03/04 01:54:16;;;;;;;11.77;8.55;;;3.20;99.90;;;;;;5025822;28;20221;-63
2024/03/04 01:56:43;;;;;;;13.40;9.13;;;3.10;99.90;;;;;;5026658;28;20624;-63
2024/03/04 01:59:10;;;;;;;9.55;8.32;;;3.10;99.90;;;;;;5026454;28;20207;-63
2024/03/04 02:01:37;;;;;;;11.68;9.30;;;3.10;99.90;;;;;;5026690;28;20226;-63
2024/03/04 02:04:04;;;;;;;14.40;9.80;;;3.10;99.90;;;;;;5026266;28;20207;-63
2024/03/04 02:06:33;;;;;;;14.70;9.10;;;3.10;99.90;;;;;;5028066;28;20310;-63
2024/03/04 02:08:59;;;;;;;11.23;9.80;;;3.10;99.90;;;;;;5027802;28;20215;-63
2024/03/04 02:11:27;;;;;;;10.25;8.23;;;3.10;99.90;;;;;;5028055;28;20231;-63
2024/03/04 02:13:54;;;;;;;11.38;8.77;;;3.10;99.90;;;;;;5027620;28;20211;-63
2024/03/04 02:16:21;;;;;;;11.88;8.27;;;3.10;99.90;;;;;;5028242;28;20681;-63
2024/03/04 02:18:48;;;;;;;11.25;10.05;;;3.00;99.90;;;;;;5031940;28;20649;-63
2024/03/04 02:21:16;;;;;;;10.70;8.75;;;3.00;99.90;;;;;;5031384;28;20309;-63
2024/03/04 02:23:45;;;;;;;14.98;10.00;;;3.00;99.90;;;;;;5031156;28;20294;-63
2024/03/04 02:26:12;;;;;;;11.50;8.98;;;3.00;99.90;;;;;;5031654;28;20222;-63
2024/03/04 02:28:39;;;;;;;11.40;9.77;;;3.00;99.90;;;;;;5031505;28;20207;-63
2024/03/04 02:31:07;;;;;;;8.88;7.57;;;3.00;99.90;;;;;;5031193;28;20238;-63
2024/03/04 02:33:34;;;;;;;13.02;8.93;;;3.00;99.90;;;;;;5030789;28;20216;-63
2024/03/04 02:36:01;;;;;;;11.80;9.13;;;3.00;99.90;;;;;;5031262;28;20330;-63
2024/03/04 02:38:28;;;;;;;11.20;9.35;;;3.00;99.90;;;;;;5031557;28;20698;-63
2024/03/04 02:40:59;;;;;;;13.48;8.88;;;2.90;99.90;;;;;;5030899;28;20247;-63
2024/03/04 02:43:26;;;;;;;11.88;9.82;;;3.00;99.90;;;;;;5030810;28;20585;-63
2024/03/04 02:45:53;;;;;;;9.73;8.73;;;3.00;99.90;;;;;;5030940;28;20602;-63
2024/03/04 02:48:20;;;;;;;14.10;10.10;;;3.00;99.90;;;;;;5030447;28;20207;-63
2024/03/04 02:50:46;;;;;;;9.90;8.85;;;2.90;99.90;;;;;;5031004;28;20725;-63
2024/03/04 02:53:13;;;;;;;9.68;8.68;;;3.00;99.90;;;;;;5030763;28;20210;-63
2024/03/04 02:55:42;;;;;;;11.38;9.50;;;3.00;99.90;;;;;;5031157;28;20590;-63
2024/03/04 02:58:10;;;;;;;12.60;9.02;;;3.00;99.90;;;;;;5031122;28;20259;-63
2024/03/04 03:00:37;;;;;;;13.90;9.80;;;3.00;99.90;;;;;;5030563;28;20231;-63
2024/03/04 03:03:05;;;;;;;11.77;10.55;;;3.00;99.90;;;;;;5030325;28;20603;-63
2024/03/04 03:05:32;;;;;;;13.40;9.95;;;3.00;99.90;;;;;;5030985;28;20210;-63
2024/03/04 03:07:59;;;;;;;11.52;9.18;;;3.00;99.90;;;;;;5030885;28;20619;-64
2024/03/04 03:10:26;;;;;;;14.48;9.30;;;3.00;99.90;;;;;;5030565;28;20250;-63
2024/03/04 03:12:53;;;;;;;11.38;8.65;;;3.00;99.90;;;;;;5030318;28;20211;-63
2024/03/04 03:15:21;;;;;;;11.93;9.32;;;3.00;99.90;;;;;;5030587;28;20211;-63
2024/03/04 03:17:48;;;;;;;11.07;8.30;;;3.00;99.90;;;;;;5030500;28;20211;-63
2024/03/04 03:20:18;;;;;;;12.73;10.23;;;3.00;99.90;;;;;;5030255;28;20234;-63
2024/03/04 03:22:45;;;;;;;14.30;9.65;;;3.00;99.90;;;;;;5030335;28;20207;-63
2024/03/04 03:25:12;;;;;;;10.02;8.70;;;3.00;99.90;;;;;;5030585;28;20211;-63
2024/03/04 03:27:39;;;;;;;13.43;10.05;;;3.00;99.90;;;;;;5030328;28;20235;-64
2024/03/04 03:30:07;;;;;;;12.77;8.30;;;3.00;99.90;;;;;;5029262;28;20241;-63
2024/03/04 03:32:37;;;;;;;8.82;7.57;;;3.00;99.90;;;;;;5029792;28;20754;-64
2024/03/04 03:35:05;;;;;;;11.25;8.02;;;3.00;99.90;;;;;;5030422;28;20242;-63
2024/03/04 03:37:32;;;;;;;13.43;10.82;;;3.00;99.90;;;;;;5030335;28;20292;-63
2024/03/04 03:39:59;;;;;;;12.45;8.55;;;2.90;99.90;;;;;;5029769;28;20262;-63
2024/03/04 03:42:26;;;;;;;10.05;9.00;;;2.90;99.90;;;;;;5029701;28;20214;-63
2024/03/04 03:44:53;;;;;;;10.38;8.90;;;2.90;99.90;;;;;;5029686;28;20215;-63
2024/03/04 03:47:20;;;;;;;8.65;7.75;;;2.90;99.90;;;;;;5029983;28;20699;-63
2024/03/04 03:49:48;;;;;;;9.63;7.68;;;2.90;99.90;;;;;;5029850;28;20241;-63
2024/03/04 03:52:15;;;;;;;14.27;7.80;;;2.80;99.90;;;;;;5030100;28;20222;-63
2024/03/04 03:54:41;;;;;;;11.00;9.30;;;2.80;99.90;;;;;;5029604;28;20239;-63
2024/03/04 03:57:08;;;;;;;14.02;10.57;;;2.80;99.90;;;;;;5030020;28;20749;-63
2024/03/04 03:59:35;;;;;;;11.23;9.20;;;2.80;99.90;;;;;;5029448;28;20231;-63
2024/03/04 04:02:03;;;;;;;11.25;8.48;;;2.80;99.90;;;;;;5029782;28;20233;-63
2024/03/04 04:04:30;;;;;;;11.52;10.32;;;2.70;99.90;;;;;;5029352;28;20318;-63
2024/03/04 04:06:58;;;;;;;9.00;8.10;;;2.70;99.90;;;;;;5029749;28;20223;-63
2024/03/04 04:09:25;;;;;;;16.73;10.02;;;2.70;99.90;;;;;;5029184;28;20211;-63
2024/03/04 04:11:51;;;;;;;12.27;9.02;;;2.70;99.90;;;;;;5029511;28;20211;-63
2024/03/04 04:14:18;;;;;;;9.90;8.40;;;2.70;99.90;;;;;;5029072;28;20237;-63
2024/03/04 04:16:45;;;;;;;10.85;7.80;;;2.60;99.90;;;;;;5026526;28;20210;-63
2024/03/04 04:19:12;;;;;;;11.80;8.30;;;2.60;99.90;;;;;;5029312;28;20211;-63
2024/03/04 04:21:40;;;;;;;8.20;7.43;;;2.60;99.90;;;;;;5029429;28;20302;-63
2024/03/04 04:24:10;;;;;;;8.27;7.20;;;2.60;99.90;;;;;;5028648;28;20678;-63
2024/03/04 04:26:37;;;;;;;7.65;6.80;;;2.60;99.90;;;;;;5029518;28;20211;-63
2024/03/04 04:29:04;;;;;;;9.40;7.40;;;2.50;99.90;;;;;;5029501;28;20219;-63
2024/03/04 04:31:31;;;;;;;9.80;8.35;;;2.50;99.90;;;;;;5029133;28;20237;-63
2024/03/04 04:33:58;;;;;;;16.33;8.18;;;2.50;99.90;;;;;;5028778;28;20207;-63
2024/03/04 04:36:25;;;;;;;10.32;8.40;;;2.50;99.90;;;;;;5029286;28;20222;-63
2024/03/04 04:38:52;;;;;;;10.20;6.65;;;2.50;99.90;;;;;;5029172;28;20221;-63
2024/03/04 04:41:21;;;;;;;9.25;8.15;;;2.50;99.90;;;;;;5028564;28;20261;-63
2024/03/04 04:43:47;;;;;;;8.98;8.00;;;2.40;99.90;;;;;;5028311;28;20207;-63
2024/03/04 04:46:15;;;;;;;11.82;9.35;;;2.40;99.90;;;;;;5029151;28;20241;-63
2024/03/04 04:48:41;;;;;;;12.32;9.88;;;2.40;99.90;;;;;;5029116;28;20246;-63
2024/03/04 04:51:08;;;;;;;11.85;9.40;;;2.40;99.90;;;;;;5028613;28;20234;-63
2024/03/04 04:53:35;;;;;;;11.65;8.70;;;2.40;99.90;;;;;;5028458;28;20301;-63
2024/03/04 04:56:02;;;;;;;10.43;9.52;;;2.30;99.90;;;;;;5028975;28;20213;-63
2024/03/04 04:58:30;;;;;;;11.30;10.18;;;2.30;99.90;;;;;;5028871;28;20207;-63
2024/03/04 05:00:57;;;;;;;13.43;9.25;;;2.30;99.90;;;;;;5029039;28;20318;-63
2024/03/04 05:03:25;;;;;;;16.20;10.57;;;2.30;99.90;;;;;;5028617;28;20600;-63
2024/03/04 05:05:51;;;;;;;11.70;9.80;;;2.30;99.90;;;;;;5028918;28;20321;-63
2024/03/04 05:08:18;;;;;;;10.65;8.15;;;2.20;99.90;;;;;;5020546;28;20231;-63
2024/03/04 05:10:45;;;;;;;12.48;9.48;;;2.20;99.90;;;;;;5014408;28;20605;-63
2024/03/04 05:13:12;;;;;;;8.77;7.90;;;2.20;99.90;;;;;;5007687;28;20212;-63
2024/03/04 05:15:40;;;;;;;11.77;10.57;;;2.20;99.90;;;;;;5009004;28;20683;-63
2024/03/04 05:18:09;;;;;;;12.15;9.95;;;2.20;99.90;;;;;;5008885;28;20218;-63
2024/03/04 05:20:36;;;;;;;13.15;8.77;;;2.10;99.90;;;;;;5008503;28;20768;-63
2024/03/04 05:23:03;;;;;;;10.45;9.45;;;2.10;99.90;;;;;;5008225;28;20235;-63
2024/03/04 05:25:30;;;;;;;11.00;9.57;;;2.10;99.90;;;;;;5008668;28;20307;-63
2024/03/04 05:27:57;;;;;;;11.25;8.73;;;2.10;99.90;;;;;;5008616;28;20235;-63
2024/03/04 05:30:25;;;;;;;11.57;10.23;;;2.10;99.90;;;;;;5008660;28;20235;-63
2024/03/04 05:32:53;;;;;;;31.48;10.68;;;2.00;99.90;;;;;;5008225;28;20216;-63
2024/03/04 05:35:20;;;;;;;10.02;9.02;;;2.00;99.90;;;;;;5008961;28;20226;-63
2024/03/04 05:37:47;;;;;;;8.73;7.93;;;2.00;99.90;;;;;;5008786;28;20211;-63
2024/03/04 05:40:14;;;;;;;16.60;10.27;;;2.00;99.90;;;;;;5008260;28;20625;-63
2024/03/04 05:42:41;;;;;;;13.18;9.57;;;2.00;99.90;;;;;;5008354;28;20212;-63
2024/03/04 05:45:09;;;;;;;12.48;10.63;;;1.90;99.90;;;;;;5008509;28;20227;-63
2024/03/04 05:47:36;;;;;;;12.23;10.63;;;1.90;99.90;;;;;;5008508;28;20789;-63
2024/03/04 05:50:06;;;;;;;10.73;9.27;;;1.90;99.90;;;;;;5008250;28;20231;-63
2024/03/04 05:52:33;;;;;;;13.40;11.52;;;1.90;99.90;;;;;;5009717;28;20298;-63
2024/03/04 05:55:00;;;;;;;11.40;8.70;;;1.90;99.90;;;;;;5012261;28;20319;-63
2024/03/04 05:57:27;;;;;;;12.50;8.98;;;1.90;99.90;;;;;;5012160;28;20204;-63
2024/03/04 05:59:54;;;;;;;12.25;9.30;;;1.90;99.90;;;;;;5011991;28;20236;-63
2024/03/04 06:02:21;;;;;;;14.32;9.32;;;1.90;99.90;;;;;;5012397;28;20222;-63
2024/03/04 06:04:48;;;;;;;14.48;9.02;;;1.80;99.90;;;;;;5011719;28;20593;-63
2024/03/04 06:07:16;;;;;;;18.58;11.38;;;1.80;99.90;;;;;;5012112;28;20733;-63
2024/03/04 06:09:44;;;;;;;9.90;8.77;;;1.80;99.90;;;;;;5012249;28;20257;-63
2024/03/04 06:12:11;;;;;;;15.70;10.18;;;1.80;99.90;;;;;;5011977;28;20216;-63
2024/03/04 06:14:38;;;;;;;17.02;10.10;;;1.80;99.90;;;;;;5011633;28;20211;-63
2024/03/04 06:17:06;;;;;;;16.00;10.50;;;1.70;99.90;;;;;;5012007;28;20285;-63
2024/03/04 06:19:34;;;;;;;13.18;11.45;;;1.80;99.90;;;;;;5011562;28;20616;-63
2024/03/04 06:22:01;;;;;;;13.10;10.90;;;1.80;99.90;;;;;;5030264;28;20199;-63
2024/03/04 06:24:31;;;;;;;13.10;9.98;;;1.70;99.90;;;;;;5031178;28;20599;-63
2024/03/04 06:26:58;;;;;;;14.80;10.25;;;1.80;99.90;;;;;;5031262;28;20216;-63
2024/03/04 06:29:25;;;;;;;14.25;11.70;;;1.80;99.90;;;;;;5031343;28;20225;-63
2024/03/04 06:31:54;;;;;;;12.48;9.95;;;1.80;99.90;;;;;;5031481;28;20297;-63
2024/03/04 06:34:21;;;;;;;10.90;9.70;;;1.80;99.90;;;;;;5030731;28;20697;-63
2024/03/04 06:36:48;;;;;;;11.43;9.35;;;1.80;99.90;;;;;;5030269;28;20705;-63
2024/03/04 06:39:16;;;;;;;16.00;10.30;;;1.80;99.90;;;;;;5031072;28;20221;-63
2024/03/04 06:41:44;;;;;;;13.82;10.10;;;1.80;99.90;;;;;;5055051;22;20249;-61
2024/03/04 06:44:11;;;;;;;16.55;11.48;;;1.80;99.90;;;;;;5030617;28;20221;-59
2024/03/04 06:46:37;;;;;;;14.68;11.80;;;1.90;99.90;;;;;;5031084;28;20215;-61
2024/03/04 06:49:04;;;;;;;12.20;10.25;;;1.90;99.90;;;;;;5031133;28;20273;-59
2024/03/04 06:51:35;;;;;;;16.45;12.90;;;1.90;99.90;;;;;;5031077;28;20239;-62
2024/03/04 06:54:02;;;;;;;12.27;10.75;;;2.00;99.90;;;;;;5030491;28;20211;-62
2024/03/04 06:56:30;;;;;;;13.55;9.15;;;2.00;99.90;;;;;;5030797;28;20650;-60
2024/03/04 06:58:58;;;;;;;12.80;9.65;;;2.00;99.90;;;;;;5031076;28;20265;-61
2024/03/04 07:01:25;;;;;;;13.20;9.18;;;2.00;99.90;;;;;;5030780;28;20845;-60
2024/03/04 07:03:53;;;;;;;12.85;8.82;;;2.10;99.90;;;;;;5030237;28;20330;-61
2024/03/04 07:06:20;;;;;;;14.18;10.23;;;2.10;99.90;;;;;;5043831;28;20221;-61
2024/03/04 07:08:47;;;;;;;13.10;10.15;;;2.20;99.90;;;;;;5050691;28;20629;-62
2024/03/04 07:11:15;;;;;;;16.23;10.75;;;2.20;99.90;;;;;;5050389;28;20238;-61
2024/03/04 07:13:42;;;;;;;11.90;9.63;;;2.30;99.90;;;;;;5050320;28;20218;-60
2024/03/04 07:16:12;;;;;;;17.13;11.63;;;2.30;99.90;;;;;;5050390;28;20207;-61
2024/03/04 07:18:39;;;;;;;14.57;10.65;;;2.40;99.90;;;;;;5050635;28;20221;-59
2024/03/04 07:21:06;;;;;;;11.93;7.75;;;2.40;99.90;;;;;;5050107;28;20326;-62
2024/03/04 07:23:33;;;;;;;11.23;8.30;;;2.40;99.90;;;;;;5049687;28;20217;-59
2024/03/04 07:26:05;;;;;;;10.25;8.73;;;2.50;99.90;;;;;;5050249;28;20228;-59
2024/03/04 07:28:32;;;;;;;11.18;9.50;;;2.60;99.90;;;;;;5050346;28;20329;-60
2024/03/04 07:31:00;;;;;;;12.75;9.00;;;2.60;99.90;;;;;;5050008;28;20234;-60
2024/03/04 07:33:28;;;;;;;10.65;8.50;;;2.60;99.90;;;;;;5049661;28;20214;-61
2024/03/04 07:35:55;;;;;;;13.75;9.68;;;2.70;99.90;;;;;;5050083;28;20313;-61
2024/03/04 07:38:22;;;;;;;17.70;10.98;;;2.80;99.90;;;;;;5050015;28;20221;-62
2024/03/04 07:40:49;;;;;;;13.00;10.05;;;2.90;99.90;;;;;;5049839;28;20234;-60
2024/03/04 07:43:16;;;;;;;10.93;9.93;;;3.00;99.90;;;;;;5048878;28;20206;-61
2024/03/04 07:45:42;;;;;;;10.98;9.50;;;3.10;99.90;;;;;;5049669;28;20760;-59
2024/03/04 07:48:09;;;;;;;10.77;8.18;;;3.20;99.90;;;;;;5049588;28;20232;-61
2024/03/04 07:50:37;;;;;;;11.13;9.98;;;3.40;99.90;;;;;;5049424;28;20321;-60
2024/03/04 07:53:04;;;;;;;11.20;9.05;;;3.50;99.90;;;;;;5049449;28;20305;-61
2024/03/04 07:55:31;;;;;;;11.50;10.23;;;3.60;99.90;;;;;;5049825;28;20217;-62
2024/03/04 07:57:58;;;;;;;15.43;11.93;;;3.80;99.90;;;;;;5047512;28;20207;-62
2024/03/04 08:00:25;;;;;;;12.68;9.10;;;3.90;99.90;;;;;;5049127;28;20317;-60
2024/03/04 08:02:52;;;;;;;11.02;8.68;;;4.00;99.90;;;;;;5048457;28;20220;-61
2024/03/04 08:05:18;;;;;;;12.43;9.95;;;4.20;99.90;;;;;;5048182;28;20212;-61
2024/03/04 08:07:47;;;;;;;11.13;9.57;;;4.30;99.90;;;;;;5048776;28;20210;-62
2024/03/04 08:10:14;;;;;;;16.58;11.70;;;4.40;99.90;;;;;;5048880;28;20233;-60
2024/03/04 08:12:41;;;;;;;13.32;10.75;;;4.60;99.90;;;;;;5048811;28;20210;-62
2024/03/04 08:15:08;;;;;;;16.02;12.27;;;4.80;99.90;;;;;;5048938;28;20765;-62
2024/03/04 08:17:35;;;;;;;20.65;12.90;;;5.00;99.90;;;;;;5049418;28;20210;-61
2024/03/04 08:20:03;;;;;;;21.80;16.20;;;5.20;99.90;;;;;;5048785;28;20232;-62
2024/03/04 08:22:31;;;;;;;24.02;17.83;;;5.40;99.90;;;;;;5048608;28;20206;-61
2024/03/04 08:25:00;;;;;;;26.65;15.40;;;5.60;99.90;;;;;;5049070;28;20206;-61
2024/03/04 08:27:27;;;;;;;23.58;18.85;;;5.80;99.90;;;;;;5048824;28;20214;-62
2024/03/04 08:29:54;;;;;;;36.08;22.08;;;6.10;99.90;;;;;;5048496;28;20226;-62
2024/03/04 08:32:20;;;;;;;34.25;23.38;;;6.30;99.90;;;;;;5048577;28;20210;-61
2024/03/04 08:34:49;;;;;;;37.88;23.92;;;6.50;99.90;;;;;;5039207;28;20207;-59
2024/03/04 08:37:16;;;;;;;38.40;26.02;;;6.70;99.90;;;;;;5034692;28;20631;-62
2024/03/04 08:39:43;;;;;;;33.85;23.92;;;6.90;99.90;;;;;;5038782;28;20221;-62
2024/03/04 08:42:12;;;;;;;36.10;22.92;;;7.10;99.90;;;;;;5039958;28;20207;-62
2024/03/04 08:44:39;;;;;;;34.13;27.10;;;7.30;99.90;;;;;;5039192;28;20206;-62
2024/03/04 08:47:06;;;;;;;37.25;26.20;;;7.50;99.90;;;;;;5048381;28;20207;-62
2024/03/04 08:49:33;;;;;;;39.37;27.50;;;7.60;99.90;;;;;;5048186;28;20712;-62
2024/03/04 08:52:01;;;;;;;45.30;27.23;;;7.70;99.90;;;;;;5047797;28;20468;-62
2024/03/04 08:54:30;;;;;;;42.78;26.58;;;7.90;99.90;;;;;;5047764;28;20215;-62
2024/03/04 08:56:57;;;;;;;42.37;28.97;;;8.10;99.90;;;;;;5041475;28;20219;-62
2024/03/04 08:59:25;;;;;;;36.97;25.33;;;8.20;99.90;;;;;;5044289;28;20949;-62
2024/03/04 09:01:53;;;;;;;41.50;29.47;;;8.40;99.90;;;;;;5047511;28;20479;-62
2024/03/04 09:04:20;;;;;;;45.03;28.13;;;8.50;99.90;;;;;;5047411;28;20464;-62
2024/03/04 09:06:47;;;;;;;41.00;28.30;;;8.60;99.90;;;;;;5048198;28;20540;-62
2024/03/04 09:09:13;;;;;;;35.37;25.07;;;8.70;99.90;;;;;;5047851;28;20518;-61
2024/03/04 09:11:41;;;;;;;35.73;25.40;;;8.80;99.90;;;;;;5036728;28;20480;-62
2024/03/04 09:14:08;;;;;;;37.53;25.97;;;8.90;99.90;;;;;;5043185;28;20459;-61
2024/03/04 09:16:37;;;;;;;42.20;27.63;;;9.00;99.90;;;;;;5048205;28;20544;-62
2024/03/04 09:19:03;;;;;;;37.17;25.90;;;9.00;99.90;;;;;;5041326;28;20643;-62
2024/03/04 09:21:30;;;;;;;38.70;26.27;;;9.10;99.90;;;;;;5036869;28;20740;-63
2024/03/04 09:23:57;;;;;;;43.83;27.67;;;9.10;99.90;;;;;;5046703;28;20459;-62
2024/03/04 09:26:24;;;;;;;40.37;29.30;;;9.20;99.90;;;;;;5027873;28;20946;-62
2024/03/04 09:28:51;;;;;;;35.63;27.20;;;9.30;99.90;;;;;;5042594;28;20492;-62
2024/03/04 09:31:18;;;;;;;40.33;26.83;;;9.30;99.90;;;;;;5038410;28;20468;-62
2024/03/04 09:33:47;;;;;;;37.33;27.60;;;9.40;99.90;;;;;;5051665;28;21035;-62
2024/03/04 09:36:14;;;;;;;43.80;30.53;;;9.40;99.90;;;;;;5043966;28;20535;-62
2024/03/04 09:38:43;;;;;;;52.10;30.10;;;9.40;99.90;;;;;;5038258;28;20457;-62
2024/03/04 09:41:10;;;;;;;43.63;31.23;;;9.50;99.90;;;;;;5040292;28;20976;-62
2024/03/04 09:43:38;;;;;;;43.93;28.63;;;9.60;99.90;;;;;;5050484;28;21200;-61
2024/03/04 09:46:07;;;;;;;44.47;27.30;;;9.60;99.90;;;;;;5052173;28;20831;-61
2024/03/04 09:48:36;;;;;;;51.53;28.13;;;9.50;99.90;;;;;;5046435;28;20495;-62
2024/03/04 09:51:07;;;;;;;36.30;27.57;;;9.50;99.90;;;;;;5034350;28;20469;-62
2024/03/04 09:53:37;;;;;;;36.43;27.63;;;9.50;99.90;;;;;;5035756;28;20457;-62
2024/03/04 09:56:04;;;;;;;45.40;29.90;;;9.60;99.90;;;;;;5035877;28;20834;-62
2024/03/04 09:58:33;;;;;;;41.97;27.43;;;9.60;99.90;;;;;;5039100;28;20452;-62
2024/03/04 10:01:01;;;;;;;36.80;27.50;;;9.60;99.90;;;;;;5036055;28;20887;-62
2024/03/04 10:03:28;;;;;;;36.43;25.90;;;9.60;99.90;;;;;;5031746;28;20449;-62
2024/03/04 10:05:56;;;;;;;39.50;28.07;;;9.60;99.90;;;;;;5051087;28;20444;-61
2024/03/04 10:08:25;;;;;;;41.57;28.67;;;9.60;99.90;;;;;;5049015;28;21120;-62
2024/03/04 10:10:52;;;;;;;40.70;29.37;;;9.70;99.90;;;;;;5040230;28;20472;-62
2024/03/04 10:13:20;;;;;;;34.67;25.90;;;9.70;99.90;;;;;;5050837;28;20537;-62
2024/03/04 10:15:48;;;;;;;39.43;25.50;;;9.70;99.90;;;;;;5045644;28;20614;-63
2024/03/04 10:18:16;;;;;;;36.40;23.80;;;9.80;99.90;;;;;;5043177;28;20829;-62
2024/03/04 10:20:43;;;;;;;33.70;23.60;;;9.80;99.90;;;;;;5042926;28;20556;-62
2024/03/04 10:23:11;;;;;;;38.70;23.07;;;9.90;99.90;;;;;;5033597;28;20448;-62
2024/03/04 10:25:39;;;;;;;34.03;24.27;;;9.90;99.90;;;;;;5044794;28;20453;-62
2024/03/04 10:28:06;;;;;;;36.00;25.27;;;9.90;99.90;;;;;;5042966;28;20441;-62
2024/03/04 10:30:34;;;;;;;37.73;24.27;;;9.90;99.90;;;;;;5049350;28;20493;-62
2024/03/04 10:33:04;;;;;;;32.53;23.63;;;10.00;99.90;;;;;;5041885;28;20449;-62
2024/03/04 10:35:31;;;;;;;37.03;26.37;;;10.00;99.90;;;;;;5045645;28;20444;-62
2024/03/04 10:38:01;;;;;;;34.43;25.80;;;10.10;99.90;;;;;;5048086;28;20463;-62
2024/03/04 10:40:28;;;;;;;35.17;23.33;;;10.10;99.90;;;;;;5048609;28;20489;-63
2024/03/04 10:42:59;;;;;;;40.90;25.33;;;10.20;99.90;;;;;;5039917;28;20565;-62
2024/03/04 10:45:30;;;;;;;37.50;25.43;;;10.20;99.90;;;;;;5048400;28;20574;-63
2024/03/04 10:47:57;;;;;;;33.30;26.13;;;10.30;99.90;;;;;;5047978;28;20451;-62
2024/03/04 10:50:24;;;;;;;51.30;27.93;;;10.30;99.90;;;;;;5047874;28;20498;-62
2024/03/04 10:52:52;;;;;;;36.80;26.17;;;10.40;99.90;;;;;;5042371;28;20455;-61
2024/03/04 10:55:19;;;;;;;33.53;24.90;;;10.40;99.90;;;;;;5044055;28;20480;-62
2024/03/04 10:57:46;;;;;;;37.70;27.00;;;10.50;99.90;;;;;;5044508;28;20457;-60
2024/03/04 11:00:25;;;;;;;36.33;26.30;;;10.60;99.90;;;;;;5040373;28;20472;-62
2024/03/04 11:03:03;;;;;;;34.40;25.23;;;10.60;99.90;;;;;;5034912;28;20449;-62
2024/03/04 11:05:32;;;;;;;39.60;26.50;;;10.70;99.90;;;;;;5039341;28;20784;-61
2024/03/04 11:08:04;;;;;;;35.37;26.67;;;10.70;99.90;;;;;;5041287;28;20457;-63
2024/03/04 11:10:32;;;;;;;36.43;26.67;;;10.80;99.90;;;;;;5043051;28;20492;-63
2024/03/04 11:13:15;;;;;;;39.57;27.50;;;10.80;99.90;;;;;;5035449;28;20449;-62
2024/03/04 11:15:53;;;;;;;32.63;25.47;;;10.80;99.90;;;;;;5041371;28;20471;-62
2024/03/04 11:18:31;;;;;;;37.07;27.27;;;10.80;99.90;;;;;;5046394;28;20445;-62
2024/03/04 11:20:59;;;;;;;37.20;26.93;;;10.80;99.90;;;;;;5046309;28;20469;-62
2024/03/04 11:23:26;;;;;;;36.60;25.37;;;10.80;99.90;;;;;;5048675;28;20445;-62
2024/03/04 11:25:54;;;;;;;43.23;27.50;;;10.80;99.90;;;;;;5049498;28;20869;-62
2024/03/04 11:28:22;;;;;;;38.27;27.10;;;10.80;99.90;;;;;;5049107;28;20449;-63
2024/03/04 11:30:50;;;;;;;39.67;28.73;;;10.80;99.90;;;;;;5048647;28;20854;-62
2024/03/04 11:33:40;;;;;;;30.30;24.17;;;10.90;99.90;;;;;;5048361;28;20447;-62
2024/03/04 11:36:09;;;;;;;43.93;26.47;;;10.90;99.90;;;;;;5049062;28;20459;-63
2024/03/04 11:38:41;;;;;;;32.90;25.60;;;11.00;99.90;;;;;;5049002;28;20455;-63
2024/03/04 11:41:09;;;;;;;34.47;26.30;;;11.00;99.90;;;;;;5048404;28;20481;-63
2024/03/04 11:43:43;;;;;;;33.60;26.60;;;11.00;99.90;;;;;;5048173;28;20455;-62
2024/03/04 11:46:13;;;;;;;37.80;26.33;;;11.00;99.90;;;;;;5048572;28;21035;-62
2024/03/04 11:48:41;;;;;;;32.63;27.27;;;11.00;99.90;;;;;;5048842;28;20524;-62
2024/03/04 11:51:09;;;;;;;35.80;25.63;;;11.00;99.90;;;;;;5047487;28;20468;-62
2024/03/04 11:53:37;;;;;;;36.00;25.50;;;11.10;99.90;;;;;;5048088;28;20582;-63
2024/03/04 11:56:05;;;;;;;31.33;24.57;;;11.10;99.90;;;;;;5048690;28;20483;-63
2024/03/04 11:58:32;;;;;;;40.93;26.00;;;11.10;99.90;;;;;;5048507;28;20449;-63
2024/03/04 12:01:00;;;;;;;33.80;25.93;;;11.10;99.90;;;;;;5047204;28;20491;-62
2024/03/04 12:03:28;;;;;;;32.07;23.73;;;11.20;99.90;;;;;;5040114;28;20881;-62
2024/03/04 12:05:55;;;;;;;37.87;26.57;;;11.20;99.90;;;;;;5041137;28;20559;-62
2024/03/04 12:08:22;;;;;;;34.13;28.00;;;11.20;99.90;;;;;;5045096;28;20448;-62
2024/03/04 12:10:50;;;;;;;36.43;26.30;;;11.30;99.90;;;;;;5048427;28;20503;-62
2024/03/04 12:13:20;;;;;;;31.40;28.03;;;11.30;99.90;;;;;;5047567;28;21018;-62
2024/03/04 12:15:46;;;;;;;32.23;25.27;;;11.30;99.90;;;;;;5048069;28;20544;-62
2024/03/04 12:18:13;;;;;;;36.90;27.40;;;11.30;99.90;;;;;;5048158;28;20459;-62
2024/03/04 12:20:42;;;;;;;37.23;25.70;;;11.30;99.90;;;;;;5048187;28;20453;-62
2024/03/04 12:23:10;;;;;;;35.43;28.53;;;11.30;99.90;;;;;;5047816;28;20959;-62
2024/03/04 12:25:37;;;;;;;35.07;24.57;;;11.30;99.90;;;;;;5048386;28;20476;-62
2024/03/04 12:28:05;;;;;;;36.17;25.63;;;11.30;99.90;;;;;;5048431;28;20454;-62
2024/03/04 12:30:33;;;;;;;43.37;25.90;;;11.30;99.90;;;;;;5043751;28;20497;-63
2024/03/04 12:33:02;;;;;;;43.10;26.20;;;11.30;99.90;;;;;;5043536;28;20453;-62
2024/03/04 12:35:30;;;;;;;38.57;27.30;;;11.30;99.90;;;;;;5047100;28;20445;-62
2024/03/04 12:38:02;;;;;;;33.40;27.27;;;11.40;99.90;;;;;;5044009;28;20452;-62
2024/03/04 12:40:29;;;;;;;34.87;25.77;;;11.40;99.90;;;;;;5061263;22;20486;-62
2024/03/04 12:42:59;;;;;;;38.23;26.73;;;11.40;99.90;;;;;;5047310;28;20891;-61